Giltner, NE (68841)

4:38 AM CDT on August 28, 2015 (GMT -0500)
Buller Spraying, inc. | | Change Station
CLOSE
Current Station
Personal Weather Station
Location: Henderson, NE
Elevation: 1785 ft
Nearby Weather Stations

Elev 1785 ft 40.70 °N, 97.90 °W | Updated 7 seconds ago

Partly Cloudy
Partly Cloudy
70.4 °F
Feels Like 70.4 °F
N
0.0
Wind Variable Wind from South
Gusts 27.0 mph

Today
High -- | Low -- °F
--% Chance of Precip.
Yesterday
High -- | Low -- °F
Precip. -- in
6:55 AM 8:11 PM
Waxing Gibbous, 97% visible
Pressure 29.82 in
Visibility 10.0 miles
Clouds Mostly Cloudy 1800 ft
Mostly Cloudy 3900 ft
Dew Point 68 °F
Humidity 91%
Rainfall 0.00 in
Snow Depth Not available.
UV 0 out of 12
Pollen 10.20 out of 12
Air Quality Not available.
Flu Activity Not available.
METAR KAUH 280915Z AUTO 19003KT 10SM BKN018 BKN039 21/20 A2982 RMK AO2 T02080202
Pressure 29.82 in
Visibility 10.0 miles
Clouds Mostly Cloudy 1800 ft
Mostly Cloudy 3900 ft
Dew Point 68 °F
Humidity 91%
Rainfall 0.00 in
Snow Depth Not available.
UV 0 out of 12
Pollen 10.20 out of 12
Air Quality Not available.
Flu Activity Not available.
METAR KAUH 280915Z AUTO 19003KT 10SM BKN018 BKN039 21/20 A2982 RMK AO2 T02080202

10-Day Weather Forecast

×

Almanac

Astronomy

Aug. 28, 2015 Rise Set
Actual Time
Civil Twilight
Nautical Twilight
Astronomical Twilight
Moon
Length of Visible Light
Length of Day
Tomorrow will be .
, % of the Moon is Illuminated

Today's Extremes

State Highs State Lows

Community

WunderPhotos

Upload Photos

1,850,352 photos uploaded!

WunderBlogs® & News

Nearby

Air Quality

  Air Quality AQ Index Pollutant
Not available.

Snow Depth

Station Depth Elevation

Earthquake Activity

City Distance Mag. Time & Date
Minimum magnitude displayed is 2.5.

Coastal Water Temperatures

Place Temperature

Stations

Nearby Weather Stations

Station Location Temp. Windchill Dew Point Humidity Wind Precip. Elev Updated Type